createdAt,value
2022-09-29T00:01:46.764Z,5.50
2022-09-29T00:04:15.618Z,6.50
2022-09-29T00:06:44.022Z,8.90
2022-09-29T00:09:12.098Z,9.50
2022-09-29T00:11:40.625Z,5.40
2022-09-29T00:14:08.628Z,6.70
2022-09-29T00:16:37.058Z,7.70
2022-09-29T00:19:05.182Z,6.30
2022-09-29T00:21:39.660Z,9.50
2022-09-29T00:24:16.931Z,10.00
2022-09-29T00:26:47.200Z,7.90
2022-09-29T00:29:15.503Z,7.40
2022-09-29T00:31:44.097Z,6.80
2022-09-29T00:34:14.485Z,7.40
2022-09-29T00:36:42.834Z,9.00
2022-09-29T00:39:11.702Z,6.80
2022-09-29T00:41:42.851Z,9.60
2022-09-29T00:44:14.069Z,7.80
2022-09-29T00:46:49.495Z,8.70
2022-09-29T00:49:24.472Z,7.60
2022-09-29T00:52:07.558Z,8.10
2022-09-29T00:54:44.197Z,11.20
2022-09-29T00:57:25.896Z,7.00
2022-09-29T01:00:07.454Z,7.30
2022-09-29T01:02:41.090Z,7.50
2022-09-29T01:05:17.542Z,8.00
2022-09-29T01:07:46.341Z,7.40
2022-09-29T01:10:17.335Z,8.60
2022-09-29T01:12:49.136Z,9.50
2022-09-29T01:15:20.877Z,13.10
2022-09-29T01:17:49.931Z,7.30
2022-09-29T01:20:22.840Z,9.10
2022-09-29T01:23:23.381Z,9.70
2022-09-29T01:26:06.740Z,8.10
2022-09-29T01:28:56.825Z,7.70
2022-09-29T01:31:33.957Z,5.20
2022-09-29T01:34:13.838Z,7.40
2022-09-29T01:37:12.279Z,9.10
2022-09-29T01:40:06.634Z,8.90
2022-09-29T01:42:59.983Z,7.80
2022-09-29T01:45:41.124Z,7.20
2022-09-29T01:48:32.881Z,8.90
2022-09-29T01:51:08.456Z,6.90
2022-09-29T01:53:50.895Z,9.70
2022-09-29T01:56:32.792Z,9.50
2022-09-29T01:59:16.451Z,9.10
2022-09-29T02:01:51.188Z,8.10
2022-09-29T02:04:37.332Z,9.70
2022-09-29T02:07:17.029Z,9.00
2022-09-29T02:09:50.662Z,9.30
2022-09-29T02:12:26.093Z,8.00
2022-09-29T02:14:58.051Z,8.30
2022-09-29T02:17:43.427Z,10.90
2022-09-29T02:20:13.044Z,9.80
2022-09-29T02:22:42.608Z,8.70
2022-09-29T02:25:14.232Z,9.70
2022-09-29T02:27:42.250Z,10.10
2022-09-29T02:30:12.123Z,7.70
2022-09-29T02:32:40.718Z,8.60
2022-09-29T02:35:13.274Z,10.50
2022-09-29T02:38:10.298Z,8.60
2022-09-29T02:41:00.217Z,10.80
2022-09-29T02:43:49.534Z,9.50
2022-09-29T02:46:27.905Z,8.70
2022-09-29T02:49:32.969Z,9.80
2022-09-29T02:52:06.980Z,8.60
2022-09-29T02:54:43.812Z,9.00
2022-09-29T02:57:48.173Z,12.40
2022-09-29T03:00:18.620Z,8.70
2022-09-29T03:05:22.645Z,12.30
2022-09-29T03:07:50.827Z,12.40
2022-09-29T03:10:19.664Z,10.50
2022-09-29T03:12:47.926Z,12.10
2022-09-29T03:15:16.087Z,12.40
2022-09-29T03:17:44.144Z,13.90
2022-09-29T03:20:12.498Z,17.20
2022-09-29T03:22:40.681Z,12.90
2022-09-29T03:25:08.913Z,11.30
2022-09-29T03:27:38.547Z,11.00
2022-09-29T03:30:07.628Z,12.30
2022-09-29T03:32:35.747Z,13.80
2022-09-29T03:35:04.138Z,12.90
2022-09-29T03:37:32.092Z,13.20
2022-09-29T03:40:00.672Z,14.80
2022-09-29T03:42:28.790Z,14.20
2022-09-29T03:44:57.247Z,11.90
2022-09-29T03:47:25.343Z,11.80
2022-09-29T03:49:53.656Z,10.80
2022-09-29T03:52:21.684Z,13.60
2022-09-29T03:54:49.996Z,11.40
2022-09-29T03:57:20.491Z,11.40
2022-09-29T04:02:19.553Z,8.90
2022-09-29T04:04:48.528Z,11.00
2022-09-29T04:07:16.869Z,11.00
2022-09-29T04:09:45.639Z,11.40
2022-09-29T04:12:13.637Z,9.80
2022-09-29T04:14:41.965Z,14.20
2022-09-29T04:17:10.077Z,9.30
2022-09-29T04:19:39.455Z,12.20
2022-09-29T04:22:07.491Z,10.20
2022-09-29T04:24:35.552Z,8.00
2022-09-29T04:27:03.657Z,12.00
2022-09-29T04:29:31.815Z,11.00
2022-09-29T04:32:00.034Z,11.30
2022-09-29T04:34:28.802Z,9.20
2022-09-29T04:36:56.893Z,14.60
2022-09-29T04:39:25.065Z,11.00
2022-09-29T04:41:53.289Z,12.80
2022-09-29T04:44:22.664Z,10.80
2022-09-29T04:46:51.675Z,9.80
2022-09-29T04:49:20.475Z,13.40
2022-09-29T04:51:48.745Z,10.20
2022-09-29T04:54:17.373Z,9.70
2022-09-29T04:56:47.936Z,11.10
2022-09-29T04:59:18.061Z,11.20
2022-09-29T05:01:54.249Z,10.10
2022-09-29T05:04:23.076Z,12.40
2022-09-29T05:06:51.861Z,12.30
2022-09-29T05:09:22.879Z,10.10
2022-09-29T05:11:53.843Z,13.20
2022-09-29T05:14:23.797Z,11.10
2022-09-29T05:16:55.164Z,9.80
2022-09-29T05:19:35.409Z,11.00
2022-09-29T05:22:03.752Z,9.80
2022-09-29T05:24:31.943Z,9.90
2022-09-29T05:27:00.136Z,9.60
2022-09-29T05:29:28.328Z,8.80
2022-09-29T05:31:56.439Z,11.50
2022-09-29T05:34:24.843Z,11.30
2022-09-29T05:36:53.421Z,10.30
2022-09-29T05:39:21.937Z,10.40
2022-09-29T05:41:50.307Z,10.40
2022-09-29T05:44:18.908Z,8.30
2022-09-29T05:46:48.369Z,7.40
2022-09-29T05:49:21.920Z,11.30
2022-09-29T05:51:53.876Z,7.10
2022-09-29T05:54:23.339Z,8.20
2022-09-29T05:56:54.720Z,7.90
2022-09-29T05:59:26.154Z,10.70
2022-09-29T06:01:56.501Z,8.70
2022-09-29T06:04:24.989Z,6.80
2022-09-29T06:06:55.603Z,8.50
2022-09-29T06:09:44.304Z,10.90
2022-09-29T06:12:13.537Z,8.10
2022-09-29T06:14:46.883Z,10.90
2022-09-29T06:17:15.134Z,7.70
2022-09-29T06:19:51.938Z,8.60
2022-09-29T06:22:20.213Z,6.70
2022-09-29T06:24:48.166Z,8.30
2022-09-29T06:27:17.694Z,10.50
2022-09-29T06:29:45.833Z,11.10
2022-09-29T06:32:14.345Z,9.10
2022-09-29T06:35:01.483Z,9.90
2022-09-29T06:37:35.439Z,7.40
2022-09-29T06:40:10.134Z,9.40
2022-09-29T06:42:39.120Z,7.70
2022-09-29T06:45:08.222Z,8.50
2022-09-29T06:47:36.331Z,9.70
2022-09-29T06:50:09.810Z,7.50
2022-09-29T06:52:38.583Z,8.30
2022-09-29T06:55:07.893Z,6.40
2022-09-29T06:57:37.697Z,6.10
2022-09-29T07:00:09.860Z,7.40
2022-09-29T07:02:38.108Z,9.50
2022-09-29T07:05:06.513Z,11.80
2022-09-29T07:07:34.835Z,7.20
2022-09-29T07:10:03.381Z,10.50
2022-09-29T07:12:31.649Z,5.90
2022-09-29T07:14:59.888Z,7.10
2022-09-29T07:17:29.041Z,7.10
2022-09-29T07:19:59.743Z,7.50
2022-09-29T07:22:35.886Z,6.30
2022-09-29T07:25:04.424Z,7.70
2022-09-29T07:27:34.946Z,7.70
2022-09-29T07:30:04.497Z,8.70
2022-09-29T07:32:34.185Z,7.90
2022-09-29T07:35:02.872Z,10.10
2022-09-29T07:37:31.724Z,8.90
2022-09-29T07:40:01.112Z,7.40
2022-09-29T07:42:33.611Z,7.70
2022-09-29T07:45:03.745Z,8.20
2022-09-29T07:47:33.107Z,5.60
2022-09-29T07:50:02.106Z,6.80
2022-09-29T07:52:30.655Z,11.00
2022-09-29T07:54:59.780Z,8.10
2022-09-29T07:57:28.093Z,6.10
2022-09-29T07:59:58.538Z,8.50
2022-09-29T08:02:31.131Z,6.50
2022-09-29T08:05:04.286Z,7.30
2022-09-29T08:07:35.642Z,8.30
2022-09-29T08:10:16.270Z,6.30
2022-09-29T08:12:48.179Z,9.80
2022-09-29T08:15:17.106Z,7.10
2022-09-29T08:17:45.647Z,9.00
2022-09-29T08:20:14.414Z,8.20
2022-09-29T08:22:43.240Z,6.50
2022-09-29T08:25:11.293Z,6.50
2022-09-29T08:27:50.846Z,8.20
2022-09-29T08:30:23.363Z,10.80
2022-09-29T08:32:55.283Z,7.50
2022-09-29T08:35:25.565Z,5.70
2022-09-29T08:40:24.290Z,11.00
2022-09-29T08:43:32.316Z,7.50
2022-09-29T08:46:10.191Z,9.00
2022-09-29T08:48:55.789Z,7.30
2022-09-29T08:51:42.344Z,12.50
2022-09-29T08:54:36.159Z,8.10
2022-09-29T08:57:20.794Z,9.20
2022-09-29T09:00:00.308Z,6.80
2022-09-29T09:02:32.000Z,9.90
2022-09-29T09:05:37.298Z,7.60
2022-09-29T09:08:33.464Z,8.30
2022-09-29T09:11:22.561Z,9.30
2022-09-29T09:14:00.101Z,6.70
2022-09-29T09:16:34.392Z,8.60
2022-09-29T09:19:20.914Z,7.60
2022-09-29T09:25:47.884Z,9.80
2022-09-29T09:28:22.231Z,9.30
2022-09-29T09:31:40.665Z,6.60
2022-09-29T09:34:20.793Z,14.40
2022-09-29T09:37:08.600Z,6.50
2022-09-29T09:39:45.929Z,5.30
2022-09-29T09:45:12.092Z,9.90
2022-09-29T09:48:00.543Z,6.90
2022-09-29T09:50:28.857Z,11.80
2022-09-29T09:53:04.787Z,9.10
2022-09-29T09:55:42.393Z,6.10
2022-09-29T09:58:37.673Z,6.30
2022-09-29T10:01:12.634Z,11.10
2022-09-29T10:03:42.128Z,8.80
2022-09-29T10:06:10.518Z,11.70
2022-09-29T10:08:49.637Z,8.90
2022-09-29T10:11:22.951Z,7.60
2022-09-29T10:14:14.065Z,11.40
2022-09-29T10:17:03.720Z,7.30
2022-09-29T10:20:07.417Z,8.00
2022-09-29T10:22:37.304Z,10.50
2022-09-29T10:25:15.000Z,10.20
2022-09-29T10:27:47.075Z,6.90
2022-09-29T10:30:38.345Z,9.40
2022-09-29T10:33:25.941Z,12.60
2022-09-29T10:36:07.823Z,7.60
2022-09-29T10:38:37.581Z,7.20
2022-09-29T10:41:08.965Z,11.40
2022-09-29T10:43:47.818Z,8.60
2022-09-29T10:46:49.451Z,9.70
2022-09-29T10:49:34.202Z,10.40
2022-09-29T10:52:07.689Z,7.80
2022-09-29T10:54:42.250Z,9.70
2022-09-29T10:57:15.957Z,8.00
2022-09-29T10:59:53.195Z,7.20
2022-09-29T11:02:32.576Z,9.40
2022-09-29T11:05:05.698Z,8.90
2022-09-29T11:07:34.733Z,8.00
2022-09-29T11:10:03.060Z,11.10
2022-09-29T11:12:39.193Z,9.40
2022-09-29T11:15:27.414Z,6.90
2022-09-29T11:17:56.919Z,9.70
2022-09-29T11:20:32.167Z,8.10
2022-09-29T11:23:23.314Z,8.60
2022-09-29T11:25:57.656Z,7.30
2022-09-29T11:28:47.671Z,9.20
2022-09-29T11:31:51.125Z,6.50
2022-09-29T11:35:14.421Z,8.20
2022-09-29T11:38:03.401Z,12.90
2022-09-29T11:40:53.447Z,7.60
2022-09-29T11:43:30.728Z,7.20
2022-09-29T11:46:20.348Z,10.90
2022-09-29T11:49:25.214Z,8.30
2022-09-29T11:52:08.850Z,8.80
2022-09-29T11:54:57.749Z,10.10
2022-09-29T11:57:56.975Z,8.10
2022-09-29T12:00:51.676Z,7.00
2022-09-29T12:03:47.307Z,7.60
2022-09-29T12:06:27.535Z,10.30
2022-09-29T12:09:14.959Z,8.60
2022-09-29T12:12:11.697Z,8.90
2022-09-29T12:15:01.702Z,9.60
2022-09-29T12:17:34.559Z,14.80
2022-09-29T12:20:15.077Z,10.60
2022-09-29T12:22:46.352Z,10.70
2022-09-29T12:25:18.203Z,7.50
2022-09-29T12:27:52.289Z,10.20
2022-09-29T12:30:30.485Z,5.10
2022-09-29T12:33:23.623Z,5.60
2022-09-29T12:35:58.035Z,6.00
2022-09-29T12:38:35.315Z,8.10
2022-09-29T12:41:18.349Z,8.20
2022-09-29T12:44:09.139Z,6.90
2022-09-29T12:46:46.468Z,8.40
2022-09-29T12:49:29.745Z,6.00
2022-09-29T12:51:58.896Z,6.40
2022-09-29T12:54:42.019Z,4.70
2022-09-29T12:57:23.405Z,5.90
2022-09-29T13:00:04.457Z,4.10
2022-09-29T13:02:54.179Z,4.40
2022-09-29T13:05:40.879Z,5.90
2022-09-29T13:08:27.917Z,6.30
2022-09-29T13:11:00.099Z,3.80
2022-09-29T13:13:31.732Z,3.80
2022-09-29T13:16:39.733Z,7.20
2022-09-29T13:19:56.180Z,7.00
2022-09-29T13:22:51.963Z,5.10
2022-09-29T13:25:37.688Z,4.00
2022-09-29T13:28:35.810Z,4.20
2022-09-29T13:31:32.520Z,4.80
2022-09-29T13:34:03.466Z,3.80
2022-09-29T13:36:37.453Z,3.90
2022-09-29T13:39:19.436Z,3.80
2022-09-29T13:41:47.669Z,7.20
2022-09-29T13:44:26.994Z,5.70
2022-09-29T13:46:57.432Z,6.10
2022-09-29T13:49:29.241Z,10.90
2022-09-29T13:52:03.773Z,7.80
2022-09-29T13:54:34.691Z,3.40
2022-09-29T13:57:13.330Z,2.90
2022-09-29T13:59:45.419Z,8.50
2022-09-29T14:02:26.669Z,9.10
2022-09-29T14:04:56.213Z,5.30
2022-09-29T14:08:03.334Z,6.00
2022-09-29T14:10:41.148Z,5.70
2022-09-29T14:13:27.011Z,6.00
2022-09-29T14:16:38.089Z,7.50
2022-09-29T14:19:15.973Z,7.10
2022-09-29T14:21:54.922Z,10.40
2022-09-29T14:24:38.113Z,6.20
2022-09-29T14:27:50.227Z,6.40
2022-09-29T14:30:41.385Z,6.60
2022-09-29T14:33:23.298Z,7.60
2022-09-29T14:36:00.310Z,7.10
2022-09-29T14:38:36.625Z,6.50
2022-09-29T14:41:08.073Z,5.40
2022-09-29T14:43:39.181Z,6.80
2022-09-29T14:46:25.942Z,9.70
2022-09-29T14:49:34.715Z,9.50
2022-09-29T14:52:20.405Z,9.60
2022-09-29T14:55:20.731Z,6.20
2022-09-29T14:58:06.855Z,8.80
2022-09-29T15:00:47.451Z,5.30
2022-09-29T15:03:28.596Z,5.70
2022-09-29T15:06:13.287Z,7.80
2022-09-29T15:08:52.260Z,5.70
2022-09-29T15:11:29.927Z,8.30
2022-09-29T15:13:59.823Z,12.30
2022-09-29T15:17:16.012Z,6.30
2022-09-29T15:20:08.739Z,6.30
2022-09-29T15:22:55.580Z,7.20
2022-09-29T15:25:30.145Z,9.00
2022-09-29T15:28:28.396Z,9.90
2022-09-29T15:31:03.329Z,7.40
2022-09-29T15:33:37.814Z,6.50
2022-09-29T15:36:19.961Z,13.00
2022-09-29T15:38:53.700Z,10.10
2022-09-29T15:41:29.195Z,7.80
2022-09-29T15:44:12.235Z,5.80
2022-09-29T15:46:48.986Z,10.30
2022-09-29T15:49:22.083Z,5.90
2022-09-29T15:52:12.030Z,5.10
2022-09-29T15:54:45.134Z,7.80
2022-09-29T15:57:53.149Z,7.50
2022-09-29T16:00:21.104Z,6.80
2022-09-29T16:03:02.472Z,9.80
2022-09-29T16:05:34.607Z,12.90
2022-09-29T16:08:07.249Z,6.20
2022-09-29T16:10:42.600Z,8.20
2022-09-29T16:13:21.080Z,6.20
2022-09-29T16:15:50.839Z,7.40
2022-09-29T16:18:29.510Z,6.90
2022-09-29T16:21:00.298Z,7.90
2022-09-29T16:23:35.289Z,6.90
2022-09-29T16:26:16.450Z,6.50
2022-09-29T16:29:09.273Z,7.80
2022-09-29T16:31:43.216Z,8.00
2022-09-29T16:34:25.495Z,7.00
2022-09-29T16:37:00.325Z,10.10
2022-09-29T16:39:43.639Z,11.20
2022-09-29T16:42:27.235Z,9.20
2022-09-29T16:44:56.958Z,11.70
2022-09-29T16:47:29.729Z,9.30
2022-09-29T16:50:17.170Z,8.80
2022-09-29T16:52:50.339Z,8.30
2022-09-29T16:55:18.825Z,5.90
2022-09-29T16:58:15.860Z,8.30
2022-09-29T17:00:44.121Z,11.80
2022-09-29T17:03:12.330Z,9.50
2022-09-29T17:05:47.486Z,10.60
2022-09-29T17:08:24.933Z,8.00
2022-09-29T17:10:55.610Z,8.70
2022-09-29T17:13:24.962Z,9.60
2022-09-29T17:15:54.069Z,9.50
2022-09-29T17:18:25.172Z,12.80
2022-09-29T17:20:54.496Z,11.40
2022-09-29T17:23:22.520Z,13.80
2022-09-29T17:25:50.724Z,11.50
2022-09-29T17:28:24.054Z,10.70
2022-09-29T17:31:01.241Z,8.30
2022-09-29T17:33:31.289Z,9.50
2022-09-29T17:36:00.993Z,8.90
2022-09-29T17:38:31.177Z,6.40
2022-09-29T17:41:06.294Z,9.60
2022-09-29T17:43:34.892Z,9.50
2022-09-29T17:46:03.262Z,7.40
2022-09-29T17:48:33.009Z,11.30
2022-09-29T17:51:04.121Z,7.00
2022-09-29T17:53:32.191Z,12.70
2022-09-29T17:56:02.899Z,10.60
2022-09-29T18:00:59.787Z,9.60
2022-09-29T18:03:29.503Z,5.90
2022-09-29T18:06:00.160Z,9.50
2022-09-29T18:08:34.929Z,7.90
2022-09-29T18:11:03.034Z,7.00
2022-09-29T18:13:32.184Z,8.30
2022-09-29T18:16:01.642Z,8.60
2022-09-29T18:18:31.644Z,8.90
2022-09-29T18:21:00.887Z,9.10
2022-09-29T18:23:28.895Z,9.30
2022-09-29T18:25:57.020Z,10.70
2022-09-29T18:28:25.244Z,9.20
2022-09-29T18:31:18.327Z,7.90
2022-09-29T18:33:46.603Z,9.50
2022-09-29T18:36:14.577Z,10.90
2022-09-29T18:38:42.728Z,10.40
2022-09-29T18:41:19.792Z,8.00
2022-09-29T18:43:49.623Z,8.50
2022-09-29T18:46:18.237Z,8.60
2022-09-29T18:48:46.317Z,10.80
2022-09-29T18:51:16.711Z,8.70
2022-09-29T18:53:47.163Z,9.50
2022-09-29T18:56:19.257Z,8.90
2022-09-29T18:58:47.243Z,12.10
2022-09-29T19:01:21.653Z,14.40
2022-09-29T19:03:49.983Z,18.60
2022-09-29T19:06:18.234Z,17.40
2022-09-29T19:08:49.184Z,20.10
2022-09-29T19:11:20.387Z,27.30
2022-09-29T19:13:52.434Z,25.80
2022-09-29T19:16:22.160Z,21.30
2022-09-29T19:18:50.513Z,12.70
2022-09-29T19:21:18.686Z,12.60
2022-09-29T19:23:46.855Z,14.00
2022-09-29T19:26:18.964Z,15.40
2022-09-29T19:28:48.321Z,15.40
2022-09-29T19:31:19.549Z,12.40
2022-09-29T19:33:48.674Z,14.90
2022-09-29T19:36:21.611Z,8.70
2022-09-29T19:38:50.209Z,10.10
2022-09-29T19:41:22.019Z,9.80
2022-09-29T19:43:51.263Z,12.90
2022-09-29T19:46:20.729Z,7.00
2022-09-29T19:48:49.130Z,6.10
2022-09-29T19:51:37.274Z,7.70
2022-09-29T19:54:11.301Z,8.50
2022-09-29T19:56:44.627Z,9.10
2022-09-29T19:59:14.312Z,10.30
2022-09-29T20:01:45.711Z,6.20
2022-09-29T20:04:14.678Z,9.10
2022-09-29T20:06:43.949Z,6.10
2022-09-29T20:09:13.406Z,9.70
2022-09-29T20:11:44.198Z,7.00
2022-09-29T20:14:13.947Z,5.90
2022-09-29T20:16:44.278Z,9.40
2022-09-29T20:21:45.694Z,7.50
2022-09-29T20:24:17.497Z,7.50
2022-09-29T20:26:47.639Z,9.60
2022-09-29T20:29:19.432Z,14.70
2022-09-29T20:31:53.867Z,7.00
2022-09-29T20:34:23.197Z,11.20
2022-09-29T20:36:54.845Z,12.50
2022-09-29T20:39:25.846Z,15.80
2022-09-29T20:41:55.305Z,24.30
2022-09-29T20:44:25.900Z,30.60
2022-09-29T20:46:55.830Z,16.10
2022-09-29T20:49:25.157Z,12.10
2022-09-29T20:51:54.097Z,12.80
2022-09-29T20:54:22.690Z,12.50
2022-09-29T20:56:52.220Z,9.70
2022-09-29T20:59:22.911Z,12.20
2022-09-29T21:01:53.586Z,37.40
2022-09-29T21:04:22.945Z,41.10
2022-09-29T21:06:52.276Z,38.10
2022-09-29T21:09:23.340Z,38.10
2022-09-29T21:11:54.379Z,23.00
2022-09-29T21:14:26.698Z,24.20
2022-09-29T21:16:55.197Z,14.80
2022-09-29T21:19:26.147Z,30.90
2022-09-29T21:21:56.004Z,24.70
2022-09-29T21:24:24.855Z,17.40
2022-09-29T21:26:53.521Z,14.70
2022-09-29T21:29:21.608Z,11.30
2022-09-29T21:31:51.172Z,11.10
2022-09-29T21:34:20.183Z,8.50
2022-09-29T21:36:48.375Z,7.70
2022-09-29T21:39:18.926Z,10.80
2022-09-29T21:41:48.178Z,14.20
2022-09-29T21:44:19.595Z,14.30
2022-09-29T21:46:47.834Z,17.80
2022-09-29T21:49:18.194Z,13.40
2022-09-29T21:51:51.158Z,18.40
2022-09-29T21:54:22.793Z,14.50
2022-09-29T21:56:53.601Z,14.30
2022-09-29T21:59:23.233Z,17.10
2022-09-29T22:01:52.566Z,15.70
2022-09-29T22:04:21.527Z,19.60
2022-09-29T22:06:50.406Z,17.10
2022-09-29T22:09:21.101Z,16.60
2022-09-29T22:11:50.483Z,17.00
2022-09-29T22:14:19.617Z,18.50
2022-09-29T22:16:47.685Z,18.10
2022-09-29T22:19:24.016Z,23.40
2022-09-29T22:21:56.131Z,34.40
2022-09-29T22:24:26.605Z,48.30
2022-09-29T22:26:55.636Z,30.50
2022-09-29T22:29:24.607Z,34.40
2022-09-29T22:31:53.134Z,38.50
2022-09-29T22:34:21.297Z,26.90
2022-09-29T22:36:49.310Z,28.50
2022-09-29T22:39:17.390Z,28.30
2022-09-29T22:41:45.502Z,30.50
2022-09-29T22:44:13.536Z,33.90
2022-09-29T22:46:41.723Z,36.40
2022-09-29T22:49:11.146Z,31.50
2022-09-29T22:51:39.283Z,29.70
2022-09-29T22:54:08.066Z,30.70
2022-09-29T22:56:36.266Z,25.60
2022-09-29T22:59:04.855Z,29.70
2022-09-29T23:01:34.165Z,25.30
2022-09-29T23:04:04.392Z,28.50
2022-09-29T23:06:34.324Z,24.80
2022-09-29T23:09:03.000Z,16.50
2022-09-29T23:11:32.936Z,35.00
2022-09-29T23:14:01.500Z,29.50
2022-09-29T23:16:29.718Z,38.20
2022-09-29T23:18:59.081Z,36.10
2022-09-29T23:21:27.574Z,28.60
2022-09-29T23:24:01.121Z,23.70
2022-09-29T23:26:31.233Z,25.50
2022-09-29T23:29:00.960Z,20.30
2022-09-29T23:31:29.493Z,17.30
2022-09-29T23:34:00.048Z,16.70
2022-09-29T23:36:31.440Z,21.90
2022-09-29T23:39:13.686Z,25.90
2022-09-29T23:41:50.434Z,29.80
2022-09-29T23:44:22.427Z,23.70
2022-09-29T23:46:51.309Z,29.20
2022-09-29T23:49:22.585Z,19.80
2022-09-29T23:51:56.914Z,23.70
2022-09-29T23:54:27.215Z,21.10
2022-09-29T23:56:57.323Z,18.00
2022-09-29T23:59:26.914Z,18.40
